Observation data for Tatum on 01/18/2019      Previous  Date  Next       Current Mesonet Observations  Soil Data  Daily Summary Page  Observations in Plain Language
KTAT 180600Z 23009KT 05/M01 A3004 RMK A01 T00511013  RH  064%=      5-min Rain = 0
KTAT 180605Z 23008KT 05/M01 A3004 RMK A01 T00461014  RH  065%=      5-min Rain = 0
KTAT 180610Z 23008KT 04/M02 A3004 RMK A01 T00421015  RH  067%=      5-min Rain = 0
KTAT 180615Z 22009KT 04/M01 A3004 RMK A01 T00401014  RH  068%=      5-min Rain = 0
KTAT 180620Z 23009KT 04/M01 A3004 RMK A01 T00411014  RH  068%=      5-min Rain = 0
KTAT 180625Z 23010KT 04/M02 A3004 RMK A01 T00401015  RH  068%=      5-min Rain = 0
KTAT 180630Z 22010KT 04/M02 A3004 RMK A01 T00381015  RH  069%=      5-min Rain = 0
KTAT 180635Z 23011KT 04/M02 A3003 RMK A01 T00361016  RH  069%=      5-min Rain = 0
KTAT 180640Z 23011KT 04/M02 A3003 RMK A01 T00371015  RH  069%=      5-min Rain = 0
KTAT 180645Z 23010KT 04/M02 A3003 RMK A01 T00391015  RH  069%=      5-min Rain = 0
KTAT 180650Z 23009KT 04/M02 A3003 RMK A01 T00391016  RH  068%=      5-min Rain = 0
KTAT 180655Z 23009KT 04/M02 A3002 RMK A01 T00371017  RH  069%=      5-min Rain = 0
KTAT 180700Z 23009KT 04/M02 A3002 RMK A01 T00361017  RH  069%=      5-min Rain = 0
KTAT 180705Z 22009KT 03/M02 A3002 RMK A01 T00341018  RH  070%=      5-min Rain = 0
KTAT 180710Z 22008KT 03/M02 A3002 RMK A01 T00311019  RH  071%=      5-min Rain = 0
KTAT 180715Z 22008KT 03/M02 A3001 RMK A01 T00281019  RH  072%=      5-min Rain = 0
KTAT 180720Z 22010KT 03/M02 A3001 RMK A01 T00321015  RH  072%=      5-min Rain = 0
KTAT 180725Z 21011KT 04/M01 A3001 RMK A01 T00421012  RH  069%=      5-min Rain = 0
KTAT 180730Z 21012KT 05/M01 A3001 RMK A01 T00461013  RH  066%=      5-min Rain = 0
KTAT 180735Z 21012KT 05/M01 A3001 RMK A01 T00481014  RH  065%=      5-min Rain = 0
KTAT 180740Z 21011KT 05/M02 A30 RMK A01 T00481015  RH  064%=      5-min Rain = 0
KTAT 180745Z 21010KT 05/M02 A30 RMK A01 T00471016  RH  064%=      5-min Rain = 0
KTAT 180750Z 22009KT 05/M02 A30 RMK A01 T00461017  RH  064%=      5-min Rain = 0
KTAT 180755Z 22008KT 05/M02 A30 RMK A01 T00451017  RH  065%=      5-min Rain = 0
KTAT 180800Z 22008KT 05/M02 A2999 RMK A01 T00451017  RH  065%=      5-min Rain = 0
KTAT 180805Z 22009KT 05/M02 A2999 RMK A01 T00461016  RH  064%=      5-min Rain = 0
KTAT 180810Z 22009KT 05/M02 A2999 RMK A01 T00471016  RH  064%=      5-min Rain = 0
KTAT 180815Z 22009KT 05/M02 A2999 RMK A01 T00481017  RH  063%=      5-min Rain = 0
KTAT 180820Z 21010KT 05/M02 A2998 RMK A01 T00491017  RH  063%=      5-min Rain = 0
KTAT 180825Z 21012KT 05/M02 A2998 RMK A01 T00531016  RH  062%=      5-min Rain = 0
KTAT 180830Z 21010KT 06/M02 A2998 RMK A01 T00551017  RH  060%=      5-min Rain = 0
KTAT 180835Z 22009KT 05/M02 A2998 RMK A01 T00521018  RH  061%=      5-min Rain = 0
KTAT 180840Z 22009KT 05/M02 A2999 RMK A01 T00501019  RH  062%=      5-min Rain = 0
KTAT 180845Z 21008KT 05/M02 A2998 RMK A01 T00491019  RH  062%=      5-min Rain = 0
KTAT 180850Z 22009KT 05/M02 A2998 RMK A01 T00491018  RH  062%=      5-min Rain = 0
KTAT 180855Z 21009KT 05/M02 A2998 RMK A01 T00511018  RH  062%=      5-min Rain = 0
KTAT 180900Z 21009KT 05/M02 A2998 RMK A01 T00521018  RH  061%=      5-min Rain = 0
KTAT 180905Z 21010KT 05/M02 A2997 RMK A01 T00531017  RH  061%=      5-min Rain = 0
KTAT 180910Z 21010KT 06/M02 A2997 RMK A01 T00561017  RH  060%=      5-min Rain = 0
KTAT 180915Z 21010KT 06/M02 A2997 RMK A01 T00571016  RH  060%=      5-min Rain = 0
KTAT 180920Z 22010KT 06/M02 A2997 RMK A01 T00551017  RH  060%=      5-min Rain = 0
KTAT 180925Z 22009KT 05/M02 A2996 RMK A01 T00531018  RH  060%=      5-min Rain = 0
KTAT 180930Z 22010KT 05/M02 A2996 RMK A01 T00491019  RH  062%=      5-min Rain = 0
KTAT 180935Z 22010KT 05/M02 A2996 RMK A01 T00451019  RH  064%=      5-min Rain = 0
KTAT 180940Z 22009KT 04/M02 A2996 RMK A01 T00411020  RH  065%=      5-min Rain = 0
KTAT 180945Z 22009KT 04/M02 A2996 RMK A01 T00371021  RH  066%=      5-min Rain = 0
KTAT 180950Z 22008KT 03/M02 A2995 RMK A01 T00321022  RH  068%=      5-min Rain = 0
KTAT 180955Z 22009KT 03/M02 A2995 RMK A01 T00271023  RH  070%=      5-min Rain = 0
KTAT 181000Z 22010KT 03/M02 A2995 RMK A01 T00261022  RH  071%=      5-min Rain = 0
KTAT 181005Z 23010KT 03/M02 A2995 RMK A01 T00271020  RH  072%=      5-min Rain = 0
KTAT 181010Z 24009KT 03/M02 A2994 RMK A01 T00301019  RH  071%=      5-min Rain = 0
KTAT 181015Z 23009KT 03/M02 A2994 RMK A01 T00311018  RH  071%=      5-min Rain = 0
KTAT 181020Z 24010KT 04/M02 A2994 RMK A01 T00361016  RH  069%=      5-min Rain = 0
KTAT 181025Z 24009KT 04/M02 A2993 RMK A01 T00401016  RH  068%=      5-min Rain = 0
KTAT 181030Z 24008KT 04/M02 A2993 RMK A01 T00401015  RH  068%=      5-min Rain = 0
KTAT 181035Z 23008KT 04/M01 A2993 RMK A01 T00401014  RH  068%=      5-min Rain = 0
KTAT 181040Z 23009KT 04/M01 A2992 RMK A01 T00421013  RH  068%=      5-min Rain = 0
KTAT 181045Z 23008KT 04/M01 A2992 RMK A01 T00441012  RH  067%=      5-min Rain = 0
KTAT 181050Z 23007KT 04/M01 A2992 RMK A01 T00441012  RH  068%=      5-min Rain = 0
KTAT 181055Z 23007KT 05/M01 A2992 RMK A01 T00461010  RH  068%=      5-min Rain = 0
KTAT 181100Z 23005KT 05/M01 A2991 RMK A01 T00481009  RH  067%=      5-min Rain = 0
KTAT 181105Z 22005KT 05/M01 A299 RMK A01 T00491009  RH  067%=      5-min Rain = 0
KTAT 181110Z 24006KT 05/M01 A2991 RMK A01 T00491007  RH  067%=      5-min Rain = 0
KTAT 181115Z 24003KT 05/M01 A299 RMK A01 T00521006  RH  067%=      5-min Rain = 0
KTAT 181120Z 22003KT 06/M01 A2989 RMK A01 T00551005  RH  066%=      5-min Rain = 0
KTAT 181125Z 22007G12KT 06/00 A2989 RMK A01 T00590002  RH  067%=      5-min Rain = 0
KTAT 181130Z 21010KT 07/01 A2989 RMK A01 T00720006  RH  064%=      5-min Rain = 0
KTAT 181135Z 21010KT 08/01 A2987 RMK A01 T00780006  RH  061%=      5-min Rain = 0
KTAT 181140Z 22011KT 08/01 A2988 RMK A01 T00820007  RH  060%=      5-min Rain = 0
KTAT 181145Z 22012KT 09/01 A2989 RMK A01 T00850007  RH  059%=      5-min Rain = 0
KTAT 181150Z 23013KT 09/01 A2988 RMK A01 T00910008  RH  057%=      5-min Rain = 0
KTAT 181155Z 23013KT 09/01 A2987 RMK A01 T00940007  RH  055%=      5-min Rain = 0
KTAT 181200Z 23012KT 10/01 A2988 RMK A01 T00960007  RH  054%=      5-min Rain = 0
KTAT 181205Z 24012KT 10/01 A2989 RMK A01 T00970006  RH  054%=      5-min Rain = 0
KTAT 181210Z 24010KT 10/01 A2989 RMK A01 T00950006  RH  054%=      5-min Rain = 0
KTAT 181215Z 25009KT 10/01 A2989 RMK A01 T00950005  RH  054%=      5-min Rain = 0
KTAT 181220Z 25010KT 09/00 A2988 RMK A01 T00940004  RH  054%=      5-min Rain = 0
KTAT 181225Z 24012KT 10/00 A2988 RMK A01 T00970003  RH  053%=      5-min Rain = 0
KTAT 181230Z 24012KT 10/00 A2988 RMK A01 T01000001  RH  051%=      5-min Rain = 0
KTAT 181235Z 24011KT 10/00 A2988 RMK A01 T010100-0  RH  050%=      5-min Rain = 0
KTAT 181240Z 24012KT 10/M00 A2988 RMK A01 T01021001  RH  049%=      5-min Rain = 0
KTAT 181245Z 23013KT 10/M00 A2988 RMK A01 T01031003  RH  048%=      5-min Rain = 0
KTAT 181250Z 23015KT 11/M00 A2987 RMK A01 T01061004  RH  047%=      5-min Rain = 0
KTAT 181255Z 23015G20KT 11/M01 A2987 RMK A01 T01071006  RH  046%=      5-min Rain = 0
KTAT 181300Z 23015KT 11/M01 A2987 RMK A01 T01061007  RH  046%=      5-min Rain = 0
KTAT 181305Z 23013KT 10/M01 A2987 RMK A01 T01021008  RH  047%=      5-min Rain = 0
KTAT 181310Z 24012KT 10/M01 A2988 RMK A01 T00981009  RH  048%=      5-min Rain = 0
KTAT 181315Z 24010KT 09/M01 A2987 RMK A01 T00941009  RH  049%=      5-min Rain = 0
KTAT 181320Z 24011KT 09/M01 A2987 RMK A01 T00911009  RH  050%=      5-min Rain = 0
KTAT 181325Z 24010KT 09/M01 A2987 RMK A01 T00891010  RH  050%=      5-min Rain = 0
KTAT 181330Z 24013G18KT 09/M01 A2987 RMK A01 T00901011  RH  049%=      5-min Rain = 0
KTAT 181335Z 23017KT 10/M01 A2986 RMK A01 T00951013  RH  047%=      5-min Rain = 0
KTAT 181340Z 22018KT 10/M01 A2986 RMK A01 T00981014  RH  046%=      5-min Rain = 0
KTAT 181345Z 22017G22KT 10/M01 A2987 RMK A01 T00981014  RH  046%=      5-min Rain = 0
KTAT 181350Z 22019KT 10/M01 A2987 RMK A01 T00971014  RH  046%=      5-min Rain = 0
KTAT 181355Z 22018KT 10/M01 A2987 RMK A01 T00981013  RH  046%=      5-min Rain = 0
KTAT 181400Z 23017KT 10/M01 A2987 RMK A01 T00971014  RH  047%=      5-min Rain = 0
KTAT 181405Z 23016G21KT 10/M01 A2987 RMK A01 T00961013  RH  047%=      5-min Rain = 0
KTAT 181410Z 23018KT 10/M01 A2987 RMK A01 T00961013  RH  047%=      5-min Rain = 0
KTAT 181415Z 23019G24KT 10/M01 A2987 RMK A01 T00971013  RH  046%=      5-min Rain = 0
KTAT 181420Z 23019KT 10/M01 A2987 RMK A01 T00991013  RH  046%=      5-min Rain = 0
KTAT 181425Z 23019G24KT 10/M01 A2987 RMK A01 T01031013  RH  045%=      5-min Rain = 0
KTAT 181430Z 23019G24KT 10/M01 A2987 RMK A01 T01041013  RH  045%=      5-min Rain = 0
KTAT 181435Z 23020G25KT 11/M01 A2987 RMK A01 T01061013  RH  044%=      5-min Rain = 0
KTAT 181440Z 23020G25KT 11/M01 A2987 RMK A01 T01081012  RH  044%=      5-min Rain = 0
KTAT 181445Z 23021G26KT 11/M01 A2987 RMK A01 T01101012  RH  043%=      5-min Rain = 0
KTAT 181450Z 23018G24KT 11/M01 A2987 RMK A01 T01121012  RH  042%=      5-min Rain = 0
KTAT 181455Z 23020KT 11/M01 A2987 RMK A01 T01141012  RH  042%=      5-min Rain = 0
KTAT 181500Z 23019G25KT 12/M01 A2987 RMK A01 T01161012  RH  041%=      5-min Rain = 0
KTAT 181505Z 23020G27KT 12/M01 A2987 RMK A01 T01181011  RH  041%=      5-min Rain = 0
KTAT 181510Z 23020G25KT 12/M01 A2987 RMK A01 T01201011  RH  041%=      5-min Rain = 0
KTAT 181515Z 24019G24KT 12/M01 A2987 RMK A01 T01201010  RH  041%=      5-min Rain = 0
KTAT 181520Z 23020G26KT 12/M01 A2986 RMK A01 T01221011  RH  040%=      5-min Rain = 0
KTAT 181525Z 24021KT 12/M01 A2987 RMK A01 T01241011  RH  040%=      5-min Rain = 0
KTAT 181530Z 24020G25KT 13/M01 A2986 RMK A01 T01271010  RH  039%=      5-min Rain = 0
KTAT 181535Z 24020G25KT 13/M01 A2986 RMK A01 T01301011  RH  038%=      5-min Rain = 0
KTAT 181540Z 24022G29KT 14/M01 A2986 RMK A01 T01351014  RH  036%=      5-min Rain = 0
KTAT 181545Z 24023G30KT 14/M01 A2986 RMK A01 T01401014  RH  035%=      5-min Rain = 0
KTAT 181550Z 25026G32KT 14/M01 A2986 RMK A01 T01441014  RH  034%=      5-min Rain = 0
KTAT 181555Z 25025G31KT 15/M02 A2986 RMK A01 T01461015  RH  033%=      5-min Rain = 0
KTAT 181600Z 25026G31KT 14/M02 A2986 RMK A01 T01441016  RH  034%=      5-min Rain = 0
KTAT 181605Z 25025G32KT 14/M02 A2986 RMK A01 T01421015  RH  034%=      5-min Rain = 0
KTAT 181610Z 25024G31KT 14/M01 A2986 RMK A01 T01441014  RH  034%=      5-min Rain = 0
KTAT 181615Z 25024G31KT 14/M02 A2986 RMK A01 T01431016  RH  034%=      5-min Rain = 0
KTAT 181620Z 25024G30KT 14/M02 A2986 RMK A01 T01421016  RH  034%=      5-min Rain = 0
KTAT 181625Z 25024G31KT 15/M01 A2987 RMK A01 T01451014  RH  034%=      5-min Rain = 0
KTAT 181630Z 25024G29KT 15/M01 A2987 RMK A01 T01511011  RH  033%=      5-min Rain = 0
KTAT 181635Z 25024G29KT 15/M01 A2987 RMK A01 T01521010  RH  033%=      5-min Rain = 0
KTAT 181640Z 25025G32KT 16/M01 A2987 RMK A01 T01551011  RH  032%=      5-min Rain = 0
KTAT 181645Z 25025G31KT 15/M01 A2987 RMK A01 T01541012  RH  032%=      5-min Rain = 0
KTAT 181650Z 25026KT 15/M01 A2987 RMK A01 T01531011  RH  033%=      5-min Rain = 0
KTAT 181655Z 25025G33KT 15/M01 A2986 RMK A01 T01541011  RH  032%=      5-min Rain = 0
KTAT 181700Z 25026G31KT 15/M01 A2987 RMK A01 T01531011  RH  033%=      5-min Rain = 0
KTAT 181705Z 26025G30KT 16/M01 A2987 RMK A01 T01551009  RH  033%=      5-min Rain = 0
KTAT 181710Z 26025G33KT 16/M01 A2987 RMK A01 T01571008  RH  033%=      5-min Rain = 0
KTAT 181715Z 26025G31KT 16/M01 A2986 RMK A01 T01581008  RH  033%=      5-min Rain = 0
KTAT 181720Z 26024G32KT 16/M01 A2986 RMK A01 T01601007  RH  032%=      5-min Rain = 0
KTAT 181725Z 26026G32KT 16/M01 A2987 RMK A01 T01561009  RH  033%=      5-min Rain = 0
KTAT 181730Z 26025G33KT 15/M01 A2986 RMK A01 T01541010  RH  033%=      5-min Rain = 0
KTAT 181735Z 26022G30KT 15/M01 A2986 RMK A01 T01541008  RH  033%=      5-min Rain = 0
KTAT 181740Z 26023G29KT 16/M01 A2986 RMK A01 T01571007  RH  033%=      5-min Rain = 0
KTAT 181745Z 26024KT 16/M01 A2986 RMK A01 T01571008  RH  033%=      5-min Rain = 0
KTAT 181750Z 26021G27KT 16/M01 A2986 RMK A01 T01561007  RH  033%=      5-min Rain = 0
KTAT 181755Z 26023G28KT 16/M01 A2986 RMK A01 T01611006  RH  032%=      5-min Rain = 0
KTAT 181800Z 26024G31KT 17/M01 A2986 RMK A01 T01651006  RH  031%=      5-min Rain = 0
KTAT 181805Z 26022G27KT 17/M01 A2985 RMK A01 T01681005  RH  031%=      5-min Rain = 0
KTAT 181810Z 24024G29KT 17/M01 A2984 RMK A01 T01711005  RH  030%=      5-min Rain = 0
KTAT 181815Z 25023G29KT 17/M01 A2984 RMK A01 T01671006  RH  031%=      5-min Rain = 0
KTAT 181820Z 25024G32KT 17/M01 A2984 RMK A01 T01691005  RH  031%=      5-min Rain = 0
KTAT 181825Z 25023G30KT 17/M00 A2984 RMK A01 T01731004  RH  030%=      5-min Rain = 0
KTAT 181830Z 26027G33KT 17/M01 A2983 RMK A01 T01731007  RH  030%=      5-min Rain = 0
KTAT 181835Z 27027G36KT 16/M01 A2983 RMK A01 T01621013  RH  030%=      5-min Rain = 0
KTAT 181840Z 28028G37KT 16/M02 A2983 RMK A01 T01611015  RH  030%=      5-min Rain = 0
KTAT 181845Z 28028G35KT 17/M01 A2982 RMK A01 T01661011  RH  030%=      5-min Rain = 0
KTAT 181850Z 28025G33KT 17/M01 A2982 RMK A01 T01691009  RH  030%=      5-min Rain = 0
KTAT 181855Z 28024G29KT 16/M01 A2982 RMK A01 T01631010  RH  031%=      5-min Rain = 0
KTAT 181900Z 27021G28KT 16/M01 A2981 RMK A01 T01631008  RH  031%=      5-min Rain = 0
KTAT 181905Z 28024G31KT 16/M01 A2981 RMK A01 T01641009  RH  031%=      5-min Rain = 0
KTAT 181910Z 28021G27KT 16/M01 A298 RMK A01 T01621009  RH  031%=      5-min Rain = 0
KTAT 181915Z 27019G24KT 16/M01 A298 RMK A01 T01581009  RH  032%=      5-min Rain = 0
KTAT 181920Z 27020G25KT 16/M01 A2979 RMK A01 T01601008  RH  032%=      5-min Rain = 0
KTAT 181925Z 27024G31KT 16/M01 A2979 RMK A01 T01641008  RH  031%=      5-min Rain = 0
KTAT 181930Z 27023G29KT 16/M01 A2979 RMK A01 T01641008  RH  031%=      5-min Rain = 0
KTAT 181935Z 28023G30KT 17/M00 A2978 RMK A01 T01741002  RH  031%=      5-min Rain = 0
KTAT 181940Z 29025G31KT 18/M01 A2978 RMK A01 T01801007  RH  028%=      5-min Rain = 0
KTAT 181945Z 28027G36KT 17/M02 A2978 RMK A01 T01711016  RH  028%=      5-min Rain = 0
KTAT 181950Z 30030G42KT 15/M01 A2978 RMK A01 T01511012  RH  033%=      5-min Rain = 0
KTAT 181955Z 30032G39KT 14/M01 A2979 RMK A01 T01411009  RH  036%=      5-min Rain = 0
KTAT 182000Z 29031G41KT 14/M01 A2979 RMK A01 T01431006  RH  036%=      5-min Rain = 0
KTAT 182005Z 29031G37KT 14/M00 A2979 RMK A01 T01421003  RH  037%=      5-min Rain = 0
KTAT 182010Z 30032G39KT 14/00 A2979 RMK A01 T014300-0  RH  038%=      5-min Rain = 0
KTAT 182015Z 29028G36KT 14/00 A2979 RMK A01 T01400003  RH  039%=      5-min Rain = 0
KTAT 182020Z 29029G38KT 15/00 A2978 RMK A01 T01490002  RH  037%=      5-min Rain = 0
KTAT 182025Z 29029G37KT 15/M00 A2978 RMK A01 T01461002  RH  037%=      5-min Rain = 0
KTAT 182030Z 29031G42KT 15/M01 A2978 RMK A01 T01471005  RH  036%=      5-min Rain = 0
KTAT 182035Z 30032G41KT 15/M00 A2978 RMK A01 T01481004  RH  036%=      5-min Rain = 0
KTAT 182040Z 29035G42KT 14/M00 A2977 RMK A01 T01441003  RH  037%=      5-min Rain = 0
KTAT 182045Z 29031G41KT 15/M00 A2977 RMK A01 T01451002  RH  037%=      5-min Rain = 0
KTAT 182050Z 29032G40KT 15/M00 A2977 RMK A01 T01451003  RH  037%=      5-min Rain = 0
KTAT 182055Z 29030G40KT 14/M01 A2977 RMK A01 T01401008  RH  037%=      5-min Rain = 0
KTAT 182100Z 29032G39KT 13/M01 A2977 RMK A01 T01331012  RH  037%=      5-min Rain = 0
KTAT 182105Z 29027G38KT 13/M01 A2978 RMK A01 T01311012  RH  037%=      5-min Rain = 0
KTAT 182110Z 29033G42KT 13/M02 A2978 RMK A01 T01291021  RH  036%=      5-min Rain = 0
KTAT 182115Z 29027G36KT 13/M02 A2978 RMK A01 T01271022  RH  036%=      5-min Rain = 0
KTAT 182120Z 29031G39KT 13/M03 A2979 RMK A01 T01251030  RH  034%=      5-min Rain = 0
KTAT 182125Z 29029G39KT 12/M04 A298 RMK A01 T01231035  RH  033%=      5-min Rain = 0
KTAT 182130Z 29031G39KT 12/M04 A298 RMK A01 T01211039  RH  033%=      5-min Rain = 0
KTAT 182135Z 28026G35KT 11/M02 A2981 RMK A01 T01101016  RH  042%=      5-min Rain = 0
KTAT 182140Z 28027G35KT 11/M03 A2981 RMK A01 T01081025  RH  039%=      5-min Rain = 0
KTAT 182145Z 28023G29KT 11/M04 A2979 RMK A01 T01131036  RH  035%=      5-min Rain = 0
KTAT 182150Z 28021G28KT 12/M04 A2979 RMK A01 T01161042  RH  033%=      5-min Rain = 0
KTAT 182155Z 27023G30KT 12/M05 A2978 RMK A01 T01171047  RH  032%=      5-min Rain = 0
KTAT 182200Z 27022KT 12/M05 A2978 RMK A01 T01191048  RH  031%=      5-min Rain = 0
KTAT 182205Z 27021G29KT 12/M05 A2978 RMK A01 T01211051  RH  030%=      5-min Rain = 0
KTAT 182210Z 27022G28KT 12/M06 A2978 RMK A01 T01221057  RH  028%=      5-min Rain = 0
KTAT 182215Z 27023G30KT 12/M06 A2978 RMK A01 T01201058  RH  028%=      5-min Rain = 0
KTAT 182220Z 28025G30KT 12/M06 A2978 RMK A01 T01221058  RH  028%=      5-min Rain = 0
KTAT 182225Z 27023G30KT 12/M06 A2978 RMK A01 T01201060  RH  028%=      5-min Rain = 0
KTAT 182230Z 27024G33KT 12/M06 A2978 RMK A01 T01221060  RH  028%=      5-min Rain = 0
KTAT 182235Z 27024G31KT 13/M07 A2978 RMK A01 T01261068  RH  025%=      5-min Rain = 0
KTAT 182240Z 27030G37KT 13/M08 A2979 RMK A01 T01281083  RH  022%=      5-min Rain = 0
KTAT 182245Z 28028G34KT 13/M08 A2979 RMK A01 T01281081  RH  023%=      5-min Rain = 0
KTAT 182250Z 28026G35KT 12/M08 A2979 RMK A01 T01221078  RH  024%=      5-min Rain = 0
KTAT 182255Z 28027G35KT 12/M08 A2979 RMK A01 T01201076  RH  025%=      5-min Rain = 0
KTAT 182300Z 29027G34KT 12/M07 A2979 RMK A01 T01201071  RH  026%=      5-min Rain = 0
KTAT 182305Z 28026G34KT 12/M07 A2979 RMK A01 T01181068  RH  027%=      5-min Rain = 0
KTAT 182310Z 28028G36KT 12/M06 A2979 RMK A01 T01151064  RH  028%=      5-min Rain = 0
KTAT 182315Z 28026G35KT 11/M06 A2979 RMK A01 T01141060  RH  029%=      5-min Rain = 0
KTAT 182320Z 28027G34KT 11/M06 A2979 RMK A01 T01141060  RH  029%=      5-min Rain = 0
KTAT 182325Z 28025G34KT 11/M06 A2979 RMK A01 T01141060  RH  029%=      5-min Rain = 0
KTAT 182330Z 28026G33KT 11/M06 A2979 RMK A01 T01141059  RH  029%=      5-min Rain = 0
KTAT 182335Z 27027G35KT 11/M06 A2979 RMK A01 T01141061  RH  029%=      5-min Rain = 0
KTAT 182340Z 28026G32KT 12/M06 A2979 RMK A01 T01161062  RH  028%=      5-min Rain = 0
KTAT 182345Z 28025G32KT 12/M07 A2979 RMK A01 T01161065  RH  028%=      5-min Rain = 0
KTAT 182350Z 28029G38KT 12/M07 A2979 RMK A01 T01151070  RH  027%=      5-min Rain = 0
KTAT 182355Z 28025G32KT 11/M07 A298 RMK A01 T01141071  RH  027%=      5-min Rain = 0
KTAT 190000Z 28026G32KT 11/M07 A298 RMK A01 T01111067  RH  028%=      5-min Rain = 0
KTAT 190005Z 28026G32KT 11/M06 A2981 RMK A01 T01091063  RH  029%=      5-min Rain = 0
KTAT 190010Z 28024G33KT 11/M06 A2981 RMK A01 T01071062  RH  030%=      5-min Rain = 0
KTAT 190015Z 28019G24KT 10/M06 A2982 RMK A01 T01031061  RH  031%=      5-min Rain = 0
KTAT 190020Z 29020G26KT 10/M06 A2983 RMK A01 T01021062  RH  031%=      5-min Rain = 0
KTAT 190025Z 29021G28KT 10/M07 A2983 RMK A01 T01021069  RH  029%=      5-min Rain = 0
KTAT 190030Z 29025G33KT 11/M08 A2983 RMK A01 T01071083  RH  025%=      5-min Rain = 0
KTAT 190035Z 29023G28KT 11/M09 A2984 RMK A01 T01071087  RH  025%=      5-min Rain = 0
KTAT 190040Z 29025G36KT 11/M09 A2984 RMK A01 T01061089  RH  024%=      5-min Rain = 0
KTAT 190045Z 29028G37KT 11/M09 A2984 RMK A01 T01071093  RH  023%=      5-min Rain = 0
KTAT 190050Z 29027G36KT 11/M10 A2985 RMK A01 T01061095  RH  023%=      5-min Rain = 0
KTAT 190055Z 29026G37KT 10/M10 A2985 RMK A01 T01041095  RH  024%=      5-min Rain = 0
KTAT 190100Z 30029G36KT 10/M09 A2986 RMK A01 T01041094  RH  024%=      5-min Rain = 0
KTAT 190105Z 29024G32KT 10/M09 A2987 RMK A01 T01011091  RH  025%=      5-min Rain = 0
KTAT 190110Z 29024G29KT 10/M09 A2987 RMK A01 T00981087  RH  026%=      5-min Rain = 0
KTAT 190115Z 29024G33KT 10/M08 A2988 RMK A01 T00971084  RH  027%=      5-min Rain = 0
KTAT 190120Z 29022G29KT 09/M08 A2988 RMK A01 T00941082  RH  028%=      5-min Rain = 0
KTAT 190125Z 30021G29KT 09/M08 A2989 RMK A01 T00901080  RH  029%=      5-min Rain = 0
KTAT 190130Z 30024G32KT 09/M08 A2989 RMK A01 T00921082  RH  028%=      5-min Rain = 0
KTAT 190135Z 30022G29KT 09/M09 A299 RMK A01 T00901085  RH  028%=      5-min Rain = 0
KTAT 190140Z 30022G27KT 09/M09 A299 RMK A01 T00911087  RH  027%=      5-min Rain = 0
KTAT 190145Z 30022G29KT 09/M09 A299 RMK A01 T00901089  RH  027%=      5-min Rain = 0
KTAT 190150Z 29021G28KT 09/M09 A299 RMK A01 T00901089  RH  027%=      5-min Rain = 0
KTAT 190155Z 30020G26KT 09/M09 A2991 RMK A01 T00891089  RH  027%=      5-min Rain = 0
KTAT 190200Z 32020G28KT 09/M08 A2993 RMK A01 T00881076  RH  031%=      5-min Rain = 0
KTAT 190205Z 34022G29KT 08/M01 A2994 RMK A01 T00801014  RH  052%=      5-min Rain = 0
KTAT 190210Z 34021G29KT 07/M01 A2994 RMK A01 T00721007  RH  058%=      5-min Rain = 0
KTAT 190215Z 34023G30KT 07/M01 A2995 RMK A01 T00671005  RH  061%=      5-min Rain = 0
KTAT 190220Z 34020G27KT 06/M00 A2995 RMK A01 T00641004  RH  062%=      5-min Rain = 0
KTAT 190225Z 33020G28KT 06/M00 A2996 RMK A01 T00631004  RH  063%=      5-min Rain = 0
KTAT 190230Z 33020G28KT 06/M01 A2997 RMK A01 T00621006  RH  062%=      5-min Rain = 0
KTAT 190235Z 33022G29KT 06/M01 A2997 RMK A01 T00611005  RH  063%=      5-min Rain = 0
KTAT 190240Z 33024G30KT 06/M00 A2998 RMK A01 T00601004  RH  064%=      5-min Rain = 0
KTAT 190245Z 33024G33KT 06/M00 A2999 RMK A01 T00601002  RH  065%=      5-min Rain = 0
KTAT 190250Z 34028G33KT 06/00 A2999 RMK A01 T00580001  RH  068%=      5-min Rain = 0
KTAT 190255Z 33025G33KT 06/00 A30 RMK A01 T00570003  RH  069%=      5-min Rain = 0
KTAT 190300Z 33025G31KT 05/01 A3001 RMK A01 T00540005  RH  072%=      5-min Rain = 0
KTAT 190305Z 33023G32KT 05/01 A3002 RMK A01 T00530009  RH  074%=      5-min Rain = 0
KTAT 190310Z 33021G28KT 05/01 A3002 RMK A01 T00510012  RH  077%=      5-min Rain = 0
KTAT 190315Z 33019G26KT 05/01 A3003 RMK A01 T00500013  RH  078%=      5-min Rain = 0
KTAT 190320Z 33020G25KT 05/01 A3003 RMK A01 T00490012  RH  078%=      5-min Rain = 0
KTAT 190325Z 33017G24KT 05/01 A3003 RMK A01 T00490014  RH  079%=      5-min Rain = 0
KTAT 190330Z 33016G22KT 05/01 A3003 RMK A01 T00490014  RH  079%=      5-min Rain = 0
KTAT 190335Z 33015G20KT 05/01 A3003 RMK A01 T00490013  RH  078%=      5-min Rain = 0
KTAT 190340Z 33016G23KT 05/01 A3003 RMK A01 T00500012  RH  078%=      5-min Rain = 0
KTAT 190345Z 33017G24KT 05/01 A3003 RMK A01 T00500011  RH  077%=      5-min Rain = 0
KTAT 190350Z 33017KT 05/01 A3004 RMK A01 T00510009  RH  075%=      5-min Rain = 0
KTAT 190355Z 34020G28KT 05/01 A3004 RMK A01 T00500005  RH  074%=      5-min Rain = 0
KTAT 190400Z 33017KT 05/01 A3004 RMK A01 T00500005  RH  074%=      5-min Rain = 0
KTAT 190405Z 33015G20KT 05/01 A3005 RMK A01 T00500007  RH  075%=      5-min Rain = 0
KTAT 190410Z 33015G20KT 05/01 A3005 RMK A01 T00520008  RH  074%=      5-min Rain = 0
KTAT 190415Z 32014KT 05/01 A3005 RMK A01 T00520009  RH  075%=      5-min Rain = 0
KTAT 190420Z 32016KT 05/02 A3005 RMK A01 T00500016  RH  080%=      5-min Rain = 0
KTAT 190425Z 33016KT 05/02 A3006 RMK A01 T00460020  RH  084%=      5-min Rain = 0
KTAT 190430Z 33017G22KT 05/02 A3006 RMK A01 T00460021  RH  085%=      5-min Rain = 0
KTAT 190435Z 33017G24KT 05/02 A3006 RMK A01 T00460021  RH  085%=      5-min Rain = 0
KTAT 190440Z 33018G23KT 05/02 A3006 RMK A01 T00450021  RH  086%=      5-min Rain = 0
KTAT 190445Z 33019G24KT 05/02 A3007 RMK A01 T00450018  RH  084%=      5-min Rain = 0
KTAT 190450Z 33020G26KT 04/01 A3007 RMK A01 T00440014  RH  082%=      5-min Rain = 0
KTAT 190455Z 33024G32KT 04/01 A3007 RMK A01 T00420008  RH  079%=      5-min Rain = 0
KTAT 190500Z 33026G33KT 04/00 A3008 RMK A01 T00420004  RH  077%=      5-min Rain = 0
KTAT 190505Z 33023G29KT 04/00 A3008 RMK A01 T00400003  RH  077%=      5-min Rain = 0
KTAT 190510Z 34024G31KT 04/00 A3009 RMK A01 T00390002  RH  077%=      5-min Rain = 0
KTAT 190515Z 34023G31KT 04/00 A3009 RMK A01 T00390002  RH  077%=      5-min Rain = 0
KTAT 190520Z 34026G39KT 04/M00 A301 RMK A01 T00351004  RH  077%=      5-min Rain = 0
KTAT 190525Z 34024G29KT 03/M01 A3011 RMK A01 T00291005  RH  079%=      5-min Rain = 0
KTAT 190530Z 34021G26KT 03/M01 A3012 RMK A01 T00261005  RH  081%=      5-min Rain = 0
KTAT 190535Z 34021G27KT 03/M00 A3012 RMK A01 T00251003  RH  082%=      5-min Rain = 0
KTAT 190540Z 33020G25KT 02/M00 A3012 RMK A01 T00241003  RH  083%=      5-min Rain = 0
KTAT 190545Z 33018G26KT 02/M00 A3012 RMK A01 T00231004  RH  084%=      5-min Rain = 0
KTAT 190550Z 33017KT 02/M00 A3013 RMK A01 T00221004  RH  084%=      5-min Rain = 0
KTAT 190555Z 33018KT 02/M00 A3013 RMK A01 T00221004  RH  084%=      5-min Rain = 0

Page generated in 0.0156 seconds.